sensor_id;sensor_type;location;lat;lon;timestamp;P1;durP1;ratioP1;P2;durP2;ratioP2
22005;SDS011;11167;46.988;15.470;2023-02-01T00:00:29;13.90;;;9.08;;
22005;SDS011;11167;46.988;15.470;2023-02-01T00:02:30;13.48;;;9.20;;
22005;SDS011;11167;46.988;15.470;2023-02-01T00:04:31;15.20;;;9.70;;
22005;SDS011;11167;46.988;15.470;2023-02-01T00:06:32;16.15;;;9.25;;
22005;SDS011;11167;46.988;15.470;2023-02-01T00:08:34;14.18;;;9.95;;
22005;SDS011;11167;46.988;15.470;2023-02-01T00:10:35;13.28;;;9.15;;
22005;SDS011;11167;46.988;15.470;2023-02-01T00:12:37;15.90;;;10.45;;
22005;SDS011;11167;46.988;15.470;2023-02-01T00:14:38;15.60;;;9.90;;
22005;SDS011;11167;46.988;15.470;2023-02-01T00:16:40;13.93;;;9.38;;
22005;SDS011;11167;46.988;15.470;2023-02-01T00:18:41;14.85;;;9.55;;
22005;SDS011;11167;46.988;15.470;2023-02-01T00:20:46;14.43;;;9.95;;
22005;SDS011;11167;46.988;15.470;2023-02-01T00:22:47;16.25;;;10.25;;
22005;SDS011;11167;46.988;15.470;2023-02-01T00:24:48;16.97;;;9.90;;
22005;SDS011;11167;46.988;15.470;2023-02-01T00:26:49;14.43;;;9.83;;
22005;SDS011;11167;46.988;15.470;2023-02-01T00:28:51;13.60;;;9.35;;
22005;SDS011;11167;46.988;15.470;2023-02-01T00:30:55;17.10;;;9.68;;
22005;SDS011;11167;46.988;15.470;2023-02-01T00:32:58;13.13;;;9.15;;
22005;SDS011;11167;46.988;15.470;2023-02-01T00:34:59;16.52;;;9.93;;
22005;SDS011;11167;46.988;15.470;2023-02-01T00:37:02;14.33;;;9.33;;
22005;SDS011;11167;46.988;15.470;2023-02-01T00:39:03;13.50;;;9.47;;
22005;SDS011;11167;46.988;15.470;2023-02-01T00:41:06;14.43;;;9.55;;
22005;SDS011;11167;46.988;15.470;2023-02-01T00:43:09;14.68;;;10.35;;
22005;SDS011;11167;46.988;15.470;2023-02-01T00:45:10;16.67;;;10.45;;
22005;SDS011;11167;46.988;15.470;2023-02-01T00:47:11;17.77;;;10.18;;
22005;SDS011;11167;46.988;15.470;2023-02-01T00:49:12;17.07;;;10.38;;
22005;SDS011;11167;46.988;15.470;2023-02-01T00:51:15;14.90;;;10.35;;
22005;SDS011;11167;46.988;15.470;2023-02-01T00:55:19;15.28;;;9.90;;
22005;SDS011;11167;46.988;15.470;2023-02-01T00:57:20;14.73;;;10.08;;
22005;SDS011;11167;46.988;15.470;2023-02-01T00:59:21;15.53;;;10.05;;
22005;SDS011;11167;46.988;15.470;2023-02-01T01:01:23;14.75;;;10.00;;
22005;SDS011;11167;46.988;15.470;2023-02-01T01:03:26;15.63;;;9.85;;
22005;SDS011;11167;46.988;15.470;2023-02-01T01:05:27;16.45;;;10.18;;
22005;SDS011;11167;46.988;15.470;2023-02-01T01:07:28;15.30;;;9.63;;
22005;SDS011;11167;46.988;15.470;2023-02-01T01:09:29;15.18;;;9.95;;
22005;SDS011;11167;46.988;15.470;2023-02-01T01:11:32;13.93;;;9.48;;
22005;SDS011;11167;46.988;15.470;2023-02-01T01:13:34;13.90;;;9.05;;
22005;SDS011;11167;46.988;15.470;2023-02-01T01:15:37;14.98;;;8.85;;
22005;SDS011;11167;46.988;15.470;2023-02-01T01:17:39;13.70;;;9.00;;
22005;SDS011;11167;46.988;15.470;2023-02-01T01:19:40;14.53;;;9.78;;
22005;SDS011;11167;46.988;15.470;2023-02-01T01:21:41;14.33;;;8.85;;
22005;SDS011;11167;46.988;15.470;2023-02-01T01:23:43;13.13;;;8.90;;
22005;SDS011;11167;46.988;15.470;2023-02-01T01:25:46;16.32;;;10.50;;
22005;SDS011;11167;46.988;15.470;2023-02-01T01:27:50;16.48;;;9.95;;
22005;SDS011;11167;46.988;15.470;2023-02-01T01:29:51;15.45;;;9.58;;
22005;SDS011;11167;46.988;15.470;2023-02-01T01:31:52;17.80;;;10.63;;
22005;SDS011;11167;46.988;15.470;2023-02-01T01:33:55;17.42;;;10.75;;
22005;SDS011;11167;46.988;15.470;2023-02-01T01:35:57;17.43;;;10.77;;
22005;SDS011;11167;46.988;15.470;2023-02-01T01:37:58;17.25;;;11.05;;
22005;SDS011;11167;46.988;15.470;2023-02-01T01:40:00;17.52;;;11.05;;
22005;SDS011;11167;46.988;15.470;2023-02-01T01:42:02;16.55;;;11.10;;
22005;SDS011;11167;46.988;15.470;2023-02-01T01:44:55;17.50;;;11.60;;
22005;SDS011;11167;46.988;15.470;2023-02-01T01:46:33;19.17;;;12.18;;
22005;SDS011;11167;46.988;15.470;2023-02-01T01:48:38;16.70;;;11.30;;
22005;SDS011;11167;46.988;15.470;2023-02-01T01:50:50;18.60;;;11.53;;
22005;SDS011;11167;46.988;15.470;2023-02-01T01:52:50;16.57;;;11.45;;
22005;SDS011;11167;46.988;15.470;2023-02-01T01:54:55;17.48;;;11.25;;
22005;SDS011;11167;46.988;15.470;2023-02-01T01:57:00;17.10;;;11.35;;
22005;SDS011;11167;46.988;15.470;2023-02-01T01:59:03;16.82;;;10.75;;
22005;SDS011;11167;46.988;15.470;2023-02-01T02:01:06;20.85;;;11.73;;
22005;SDS011;11167;46.988;15.470;2023-02-01T02:03:09;18.65;;;11.10;;
22005;SDS011;11167;46.988;15.470;2023-02-01T02:05:17;18.15;;;11.53;;
22005;SDS011;11167;46.988;15.470;2023-02-01T02:07:21;19.95;;;11.80;;
22005;SDS011;11167;46.988;15.470;2023-02-01T02:09:24;17.52;;;11.40;;
22005;SDS011;11167;46.988;15.470;2023-02-01T02:11:25;17.77;;;11.28;;
22005;SDS011;11167;46.988;15.470;2023-02-01T02:13:44;17.10;;;10.95;;
22005;SDS011;11167;46.988;15.470;2023-02-01T02:15:45;16.48;;;10.80;;
22005;SDS011;11167;46.988;15.470;2023-02-01T02:17:51;18.77;;;12.15;;
22005;SDS011;11167;46.988;15.470;2023-02-01T02:43:48;16.75;;;10.40;;
22005;SDS011;11167;46.988;15.470;2023-02-01T02:46:20;18.73;;;10.88;;
22005;SDS011;11167;46.988;15.470;2023-02-01T02:48:46;17.10;;;10.35;;
22005;SDS011;11167;46.988;15.470;2023-02-01T02:53:17;16.85;;;9.90;;
22005;SDS011;11167;46.988;15.470;2023-02-01T02:55:42;16.17;;;9.53;;
22005;SDS011;11167;46.988;15.470;2023-02-01T02:57:45;15.63;;;9.38;;
22005;SDS011;11167;46.988;15.470;2023-02-01T03:00:08;15.20;;;9.60;;
22005;SDS011;11167;46.988;15.470;2023-02-01T03:02:47;13.32;;;9.05;;
22005;SDS011;11167;46.988;15.470;2023-02-01T03:05:08;14.43;;;8.90;;
22005;SDS011;11167;46.988;15.470;2023-02-01T03:07:13;15.43;;;9.25;;
22005;SDS011;11167;46.988;15.470;2023-02-01T03:09:18;13.95;;;8.78;;
22005;SDS011;11167;46.988;15.470;2023-02-01T03:11:21;14.28;;;8.80;;
22005;SDS011;11167;46.988;15.470;2023-02-01T03:13:26;13.18;;;8.65;;
22005;SDS011;11167;46.988;15.470;2023-02-01T03:15:40;15.90;;;8.93;;
22005;SDS011;11167;46.988;15.470;2023-02-01T03:17:44;13.72;;;9.38;;
22005;SDS011;11167;46.988;15.470;2023-02-01T03:24:11;13.43;;;9.13;;
22005;SDS011;11167;46.988;15.470;2023-02-01T03:26:19;13.60;;;8.70;;
22005;SDS011;11167;46.988;15.470;2023-02-01T03:28:22;13.62;;;8.75;;
22005;SDS011;11167;46.988;15.470;2023-02-01T03:30:26;11.85;;;7.45;;
22005;SDS011;11167;46.988;15.470;2023-02-01T03:32:39;15.85;;;10.40;;
22005;SDS011;11167;46.988;15.470;2023-02-01T03:35:01;19.50;;;11.78;;
22005;SDS011;11167;46.988;15.470;2023-02-01T03:37:06;19.60;;;11.97;;
22005;SDS011;11167;46.988;15.470;2023-02-01T03:44:02;19.12;;;11.38;;
22005;SDS011;11167;46.988;15.470;2023-02-01T03:46:08;20.08;;;11.75;;
22005;SDS011;11167;46.988;15.470;2023-02-01T03:48:11;21.35;;;12.50;;
22005;SDS011;11167;46.988;15.470;2023-02-01T03:50:19;20.25;;;12.50;;
22005;SDS011;11167;46.988;15.470;2023-02-01T03:52:25;20.32;;;12.68;;
22005;SDS011;11167;46.988;15.470;2023-02-01T03:54:34;21.35;;;12.33;;
22005;SDS011;11167;46.988;15.470;2023-02-01T03:56:37;19.02;;;12.00;;
22005;SDS011;11167;46.988;15.470;2023-02-01T03:58:40;19.17;;;11.83;;
22005;SDS011;11167;46.988;15.470;2023-02-01T04:00:44;19.00;;;12.20;;
22005;SDS011;11167;46.988;15.470;2023-02-01T04:02:48;18.75;;;12.25;;
22005;SDS011;11167;46.988;15.470;2023-02-01T04:04:50;22.00;;;12.98;;
22005;SDS011;11167;46.988;15.470;2023-02-01T04:06:51;20.92;;;12.80;;
22005;SDS011;11167;46.988;15.470;2023-02-01T04:08:53;18.77;;;12.75;;
22005;SDS011;11167;46.988;15.470;2023-02-01T04:10:54;21.73;;;12.80;;
22005;SDS011;11167;46.988;15.470;2023-02-01T04:12:56;20.72;;;12.60;;
22005;SDS011;11167;46.988;15.470;2023-02-01T04:14:57;22.13;;;12.47;;
22005;SDS011;11167;46.988;15.470;2023-02-01T04:16:58;20.20;;;12.75;;
22005;SDS011;11167;46.988;15.470;2023-02-01T04:19:00;21.15;;;12.43;;
22005;SDS011;11167;46.988;15.470;2023-02-01T04:21:01;21.48;;;12.00;;
22005;SDS011;11167;46.988;15.470;2023-02-01T04:23:03;20.37;;;12.10;;
22005;SDS011;11167;46.988;15.470;2023-02-01T04:25:04;21.30;;;11.45;;
22005;SDS011;11167;46.988;15.470;2023-02-01T04:27:06;18.42;;;11.83;;
22005;SDS011;11167;46.988;15.470;2023-02-01T04:29:08;19.23;;;11.95;;
22005;SDS011;11167;46.988;15.470;2023-02-01T04:31:10;19.32;;;11.55;;
22005;SDS011;11167;46.988;15.470;2023-02-01T04:33:11;17.23;;;11.28;;
22005;SDS011;11167;46.988;15.470;2023-02-01T04:35:14;17.98;;;11.20;;
22005;SDS011;11167;46.988;15.470;2023-02-01T04:37:15;20.62;;;12.28;;
22005;SDS011;11167;46.988;15.470;2023-02-01T04:39:16;19.00;;;11.53;;
22005;SDS011;11167;46.988;15.470;2023-02-01T04:41:18;20.37;;;11.97;;
22005;SDS011;11167;46.988;15.470;2023-02-01T04:43:20;20.40;;;11.78;;
22005;SDS011;11167;46.988;15.470;2023-02-01T04:45:21;19.73;;;11.90;;
22005;SDS011;11167;46.988;15.470;2023-02-01T04:47:22;19.12;;;11.20;;
22005;SDS011;11167;46.988;15.470;2023-02-01T04:49:23;19.73;;;12.00;;
22005;SDS011;11167;46.988;15.470;2023-02-01T04:51:26;19.92;;;12.05;;
22005;SDS011;11167;46.988;15.470;2023-02-01T04:53:27;20.80;;;11.40;;
22005;SDS011;11167;46.988;15.470;2023-02-01T04:55:30;18.60;;;11.28;;
22005;SDS011;11167;46.988;15.470;2023-02-01T04:57:31;19.42;;;11.22;;
22005;SDS011;11167;46.988;15.470;2023-02-01T04:59:32;21.00;;;11.63;;
22005;SDS011;11167;46.988;15.470;2023-02-01T05:01:33;19.85;;;11.60;;
22005;SDS011;11167;46.988;15.470;2023-02-01T05:03:35;19.75;;;12.80;;
22005;SDS011;11167;46.988;15.470;2023-02-01T05:05:37;21.87;;;12.95;;
22005;SDS011;11167;46.988;15.470;2023-02-01T05:07:38;22.17;;;13.50;;
22005;SDS011;11167;46.988;15.470;2023-02-01T05:09:39;19.80;;;12.68;;
22005;SDS011;11167;46.988;15.470;2023-02-01T05:11:40;20.68;;;13.28;;
22005;SDS011;11167;46.988;15.470;2023-02-01T05:14:00;23.07;;;13.22;;
22005;SDS011;11167;46.988;15.470;2023-02-01T05:16:02;21.57;;;13.10;;
22005;SDS011;11167;46.988;15.470;2023-02-01T05:18:03;22.35;;;13.60;;
22005;SDS011;11167;46.988;15.470;2023-02-01T05:20:05;21.10;;;13.53;;
22005;SDS011;11167;46.988;15.470;2023-02-01T05:22:07;19.17;;;12.28;;
22005;SDS011;11167;46.988;15.470;2023-02-01T05:24:08;18.60;;;12.07;;
22005;SDS011;11167;46.988;15.470;2023-02-01T05:26:14;17.57;;;11.35;;
22005;SDS011;11167;46.988;15.470;2023-02-01T05:28:15;18.02;;;11.50;;
22005;SDS011;11167;46.988;15.470;2023-02-01T05:30:17;19.00;;;12.10;;
22005;SDS011;11167;46.988;15.470;2023-02-01T05:32:18;19.02;;;11.75;;
22005;SDS011;11167;46.988;15.470;2023-02-01T05:34:20;20.72;;;11.80;;
22005;SDS011;11167;46.988;15.470;2023-02-01T05:36:21;20.17;;;11.88;;
22005;SDS011;11167;46.988;15.470;2023-02-01T05:38:22;21.10;;;11.28;;
22005;SDS011;11167;46.988;15.470;2023-02-01T05:40:23;18.32;;;11.18;;
22005;SDS011;11167;46.988;15.470;2023-02-01T05:42:25;17.23;;;10.88;;
22005;SDS011;11167;46.988;15.470;2023-02-01T05:44:26;17.60;;;10.45;;
22005;SDS011;11167;46.988;15.470;2023-02-01T05:46:27;17.20;;;10.78;;
22005;SDS011;11167;46.988;15.470;2023-02-01T05:48:35;17.35;;;10.43;;
22005;SDS011;11167;46.988;15.470;2023-02-01T05:50:36;16.85;;;10.23;;
22005;SDS011;11167;46.988;15.470;2023-02-01T05:52:37;16.37;;;10.05;;
22005;SDS011;11167;46.988;15.470;2023-02-01T05:54:39;16.37;;;10.20;;
22005;SDS011;11167;46.988;15.470;2023-02-01T05:56:40;19.17;;;11.10;;
22005;SDS011;11167;46.988;15.470;2023-02-01T05:58:41;15.83;;;10.18;;
22005;SDS011;11167;46.988;15.470;2023-02-01T06:00:42;15.95;;;10.25;;
22005;SDS011;11167;46.988;15.470;2023-02-01T06:02:43;18.82;;;10.95;;
22005;SDS011;11167;46.988;15.470;2023-02-01T06:04:44;16.15;;;10.08;;
22005;SDS011;11167;46.988;15.470;2023-02-01T06:06:46;17.85;;;10.40;;
22005;SDS011;11167;46.988;15.470;2023-02-01T06:08:47;15.88;;;10.53;;
22005;SDS011;11167;46.988;15.470;2023-02-01T06:10:48;18.45;;;11.15;;
22005;SDS011;11167;46.988;15.470;2023-02-01T06:12:49;19.92;;;11.65;;
22005;SDS011;11167;46.988;15.470;2023-02-01T06:17:11;19.92;;;12.60;;
22005;SDS011;11167;46.988;15.470;2023-02-01T06:19:13;19.05;;;12.70;;
22005;SDS011;11167;46.988;15.470;2023-02-01T06:21:14;21.77;;;13.80;;
22005;SDS011;11167;46.988;15.470;2023-02-01T06:23:18;25.52;;;15.72;;
22005;SDS011;11167;46.988;15.470;2023-02-01T06:25:19;26.15;;;17.17;;
22005;SDS011;11167;46.988;15.470;2023-02-01T06:27:21;27.90;;;18.35;;
22005;SDS011;11167;46.988;15.470;2023-02-01T06:29:22;30.62;;;18.32;;
22005;SDS011;11167;46.988;15.470;2023-02-01T06:31:24;28.07;;;17.70;;
22005;SDS011;11167;46.988;15.470;2023-02-01T06:33:26;28.40;;;17.52;;
22005;SDS011;11167;46.988;15.470;2023-02-01T06:35:28;25.40;;;16.12;;
22005;SDS011;11167;46.988;15.470;2023-02-01T06:37:29;24.55;;;14.73;;
22005;SDS011;11167;46.988;15.470;2023-02-01T06:39:31;23.00;;;14.15;;
22005;SDS011;11167;46.988;15.470;2023-02-01T06:41:32;21.62;;;14.47;;
22005;SDS011;11167;46.988;15.470;2023-02-01T06:43:35;23.55;;;15.13;;
22005;SDS011;11167;46.988;15.470;2023-02-01T06:45:37;21.35;;;14.33;;
22005;SDS011;11167;46.988;15.470;2023-02-01T06:47:39;25.52;;;15.32;;
22005;SDS011;11167;46.988;15.470;2023-02-01T06:49:40;25.60;;;15.90;;
22005;SDS011;11167;46.988;15.470;2023-02-01T06:51:41;27.37;;;16.45;;
22005;SDS011;11167;46.988;15.470;2023-02-01T06:53:42;23.85;;;15.72;;
22005;SDS011;11167;46.988;15.470;2023-02-01T06:55:57;22.93;;;15.72;;
22005;SDS011;11167;46.988;15.470;2023-02-01T06:57:59;27.32;;;16.75;;
22005;SDS011;11167;46.988;15.470;2023-02-01T07:00:03;24.90;;;16.80;;
22005;SDS011;11167;46.988;15.470;2023-02-01T07:02:08;25.50;;;16.57;;
22005;SDS011;11167;46.988;15.470;2023-02-01T07:04:12;25.90;;;16.32;;
22005;SDS011;11167;46.988;15.470;2023-02-01T07:06:13;23.67;;;15.23;;
22005;SDS011;11167;46.988;15.470;2023-02-01T07:08:14;23.52;;;15.32;;
22005;SDS011;11167;46.988;15.470;2023-02-01T07:10:17;24.27;;;15.63;;
22005;SDS011;11167;46.988;15.470;2023-02-01T07:12:18;24.95;;;14.73;;
22005;SDS011;11167;46.988;15.470;2023-02-01T07:14:20;20.97;;;14.00;;
22005;SDS011;11167;46.988;15.470;2023-02-01T07:16:21;19.12;;;13.20;;
22005;SDS011;11167;46.988;15.470;2023-02-01T07:18:22;20.15;;;13.75;;
22005;SDS011;11167;46.988;15.470;2023-02-01T07:20:23;21.55;;;13.80;;
22005;SDS011;11167;46.988;15.470;2023-02-01T07:22:24;20.85;;;13.48;;
22005;SDS011;11167;46.988;15.470;2023-02-01T07:24:26;21.37;;;14.03;;
22005;SDS011;11167;46.988;15.470;2023-02-01T07:26:27;19.90;;;13.20;;
22005;SDS011;11167;46.988;15.470;2023-02-01T07:28:29;18.87;;;12.33;;
22005;SDS011;11167;46.988;15.470;2023-02-01T07:30:32;18.37;;;12.73;;
22005;SDS011;11167;46.988;15.470;2023-02-01T07:32:33;21.60;;;13.68;;
22005;SDS011;11167;46.988;15.470;2023-02-01T07:34:34;17.30;;;12.25;;
22005;SDS011;11167;46.988;15.470;2023-02-01T07:36:35;20.32;;;13.00;;
22005;SDS011;11167;46.988;15.470;2023-02-01T07:38:37;19.23;;;12.03;;
22005;SDS011;11167;46.988;15.470;2023-02-01T07:40:38;18.67;;;12.30;;
22005;SDS011;11167;46.988;15.470;2023-02-01T07:42:39;19.00;;;12.43;;
22005;SDS011;11167;46.988;15.470;2023-02-01T07:44:40;20.62;;;11.65;;
22005;SDS011;11167;46.988;15.470;2023-02-01T07:46:41;17.35;;;12.00;;
22005;SDS011;11167;46.988;15.470;2023-02-01T07:48:43;19.00;;;11.53;;
22005;SDS011;11167;46.988;15.470;2023-02-01T07:50:44;19.70;;;11.75;;
22005;SDS011;11167;46.988;15.470;2023-02-01T07:52:45;17.82;;;11.90;;
22005;SDS011;11167;46.988;15.470;2023-02-01T07:54:47;18.85;;;11.28;;
22005;SDS011;11167;46.988;15.470;2023-02-01T07:56:48;16.48;;;10.93;;
22005;SDS011;11167;46.988;15.470;2023-02-01T07:58:49;18.30;;;11.57;;
22005;SDS011;11167;46.988;15.470;2023-02-01T08:00:52;18.65;;;11.12;;
22005;SDS011;11167;46.988;15.470;2023-02-01T08:03:12;18.87;;;11.85;;
22005;SDS011;11167;46.988;15.470;2023-02-01T08:05:13;16.27;;;10.70;;
22005;SDS011;11167;46.988;15.470;2023-02-01T08:07:14;19.57;;;11.85;;
22005;SDS011;11167;46.988;15.470;2023-02-01T08:09:15;20.40;;;12.73;;
22005;SDS011;11167;46.988;15.470;2023-02-01T08:11:17;19.52;;;12.45;;
22005;SDS011;11167;46.988;15.470;2023-02-01T08:13:19;20.35;;;13.00;;
22005;SDS011;11167;46.988;15.470;2023-02-01T08:15:20;24.02;;;14.15;;
22005;SDS011;11167;46.988;15.470;2023-02-01T08:17:22;24.12;;;14.53;;
22005;SDS011;11167;46.988;15.470;2023-02-01T08:19:23;22.15;;;14.65;;
22005;SDS011;11167;46.988;15.470;2023-02-01T08:21:25;22.87;;;14.33;;
22005;SDS011;11167;46.988;15.470;2023-02-01T08:23:29;21.95;;;14.53;;
22005;SDS011;11167;46.988;15.470;2023-02-01T08:25:30;23.98;;;14.65;;
22005;SDS011;11167;46.988;15.470;2023-02-01T08:27:32;22.35;;;13.90;;
22005;SDS011;11167;46.988;15.470;2023-02-01T08:29:34;21.17;;;13.95;;
22005;SDS011;11167;46.988;15.470;2023-02-01T08:31:35;22.77;;;14.50;;
22005;SDS011;11167;46.988;15.470;2023-02-01T08:33:40;21.95;;;12.90;;
22005;SDS011;11167;46.988;15.470;2023-02-01T08:35:42;22.42;;;13.05;;
22005;SDS011;11167;46.988;15.470;2023-02-01T08:37:43;19.65;;;11.83;;
22005;SDS011;11167;46.988;15.470;2023-02-01T08:39:44;19.73;;;11.28;;
22005;SDS011;11167;46.988;15.470;2023-02-01T08:41:45;17.67;;;11.35;;
22005;SDS011;11167;46.988;15.470;2023-02-01T08:43:48;16.80;;;10.30;;
22005;SDS011;11167;46.988;15.470;2023-02-01T08:45:50;17.30;;;10.55;;
22005;SDS011;11167;46.988;15.470;2023-02-01T08:47:54;18.90;;;10.50;;
22005;SDS011;11167;46.988;15.470;2023-02-01T08:49:57;16.90;;;10.38;;
22005;SDS011;11167;46.988;15.470;2023-02-01T08:51:58;15.68;;;9.88;;
22005;SDS011;11167;46.988;15.470;2023-02-01T08:53:59;16.93;;;9.78;;
22005;SDS011;11167;46.988;15.470;2023-02-01T08:56:01;14.38;;;9.00;;
22005;SDS011;11167;46.988;15.470;2023-02-01T08:58:03;15.35;;;9.35;;
22005;SDS011;11167;46.988;15.470;2023-02-01T09:00:05;16.05;;;9.00;;
22005;SDS011;11167;46.988;15.470;2023-02-01T09:02:10;15.35;;;9.35;;
22005;SDS011;11167;46.988;15.470;2023-02-01T09:04:15;14.93;;;8.90;;
22005;SDS011;11167;46.988;15.470;2023-02-01T09:06:16;15.05;;;9.45;;
22005;SDS011;11167;46.988;15.470;2023-02-01T09:08:18;12.85;;;8.03;;
22005;SDS011;11167;46.988;15.470;2023-02-01T09:10:20;13.62;;;8.73;;
22005;SDS011;11167;46.988;15.470;2023-02-01T09:12:22;14.73;;;8.15;;
22005;SDS011;11167;46.988;15.470;2023-02-01T09:14:23;12.28;;;7.45;;
22005;SDS011;11167;46.988;15.470;2023-02-01T09:16:24;13.13;;;8.00;;
22005;SDS011;11167;46.988;15.470;2023-02-01T09:18:26;12.35;;;7.30;;
22005;SDS011;11167;46.988;15.470;2023-02-01T09:20:27;11.15;;;7.22;;
22005;SDS011;11167;46.988;15.470;2023-02-01T09:22:28;15.20;;;7.35;;
22005;SDS011;11167;46.988;15.470;2023-02-01T09:24:29;13.08;;;7.08;;
22005;SDS011;11167;46.988;15.470;2023-02-01T09:26:30;13.13;;;7.20;;
22005;SDS011;11167;46.988;15.470;2023-02-01T09:28:32;11.12;;;6.53;;
22005;SDS011;11167;46.988;15.470;2023-02-01T09:30:33;13.70;;;7.03;;
22005;SDS011;11167;46.988;15.470;2023-02-01T09:32:35;11.08;;;6.53;;
22005;SDS011;11167;46.988;15.470;2023-02-01T09:34:36;12.73;;;7.28;;
22005;SDS011;11167;46.988;15.470;2023-02-01T09:36:37;12.33;;;6.87;;
22005;SDS011;11167;46.988;15.470;2023-02-01T09:38:38;12.55;;;7.10;;
22005;SDS011;11167;46.988;15.470;2023-02-01T09:40:41;12.65;;;7.40;;
22005;SDS011;11167;46.988;15.470;2023-02-01T09:42:48;12.23;;;7.35;;
22005;SDS011;11167;46.988;15.470;2023-02-01T09:47:37;14.43;;;7.30;;
22005;SDS011;11167;46.988;15.470;2023-02-01T09:49:51;11.85;;;7.37;;
22005;SDS011;11167;46.988;15.470;2023-02-01T09:51:53;13.38;;;7.65;;
22005;SDS011;11167;46.988;15.470;2023-02-01T09:54:01;12.93;;;7.25;;
22005;SDS011;11167;46.988;15.470;2023-02-01T09:56:23;10.70;;;6.78;;
22005;SDS011;11167;46.988;15.470;2023-02-01T09:58:41;13.43;;;7.33;;
22005;SDS011;11167;46.988;15.470;2023-02-01T10:00:41;16.25;;;6.78;;
22005;SDS011;11167;46.988;15.470;2023-02-01T10:02:45;17.73;;;7.03;;
22005;SDS011;11167;46.988;15.470;2023-02-01T10:04:46;11.30;;;6.30;;
22005;SDS011;11167;46.988;15.470;2023-02-01T10:11:29;11.95;;;6.70;;
22005;SDS011;11167;46.988;15.470;2023-02-01T10:18:13;11.22;;;6.40;;
22005;SDS011;11167;46.988;15.470;2023-02-01T10:22:45;11.20;;;5.90;;
22005;SDS011;11167;46.988;15.470;2023-02-01T10:24:49;12.47;;;6.30;;
22005;SDS011;11167;46.988;15.470;2023-02-01T10:26:59;10.65;;;5.03;;
22005;SDS011;11167;46.988;15.470;2023-02-01T10:29:18;10.82;;;5.50;;
22005;SDS011;11167;46.988;15.470;2023-02-01T10:31:39;8.20;;;5.33;;
22005;SDS011;11167;46.988;15.470;2023-02-01T10:33:44;7.92;;;5.22;;
22005;SDS011;11167;46.988;15.470;2023-02-01T10:35:49;8.43;;;4.83;;
22005;SDS011;11167;46.988;15.470;2023-02-01T10:40:12;7.90;;;5.15;;
22005;SDS011;11167;46.988;15.470;2023-02-01T10:42:26;8.58;;;4.85;;
22005;SDS011;11167;46.988;15.470;2023-02-01T10:44:29;7.78;;;4.65;;
22005;SDS011;11167;46.988;15.470;2023-02-01T10:46:32;8.70;;;4.95;;
22005;SDS011;11167;46.988;15.470;2023-02-01T10:48:34;8.35;;;4.60;;
22005;SDS011;11167;46.988;15.470;2023-02-01T10:50:41;10.03;;;5.08;;
22005;SDS011;11167;46.988;15.470;2023-02-01T10:54:51;10.65;;;5.15;;
22005;SDS011;11167;46.988;15.470;2023-02-01T10:56:53;6.78;;;4.35;;
22005;SDS011;11167;46.988;15.470;2023-02-01T10:59:01;10.85;;;4.95;;
22005;SDS011;11167;46.988;15.470;2023-02-01T11:01:06;10.23;;;5.53;;
22005;SDS011;11167;46.988;15.470;2023-02-01T11:03:20;7.35;;;4.75;;
22005;SDS011;11167;46.988;15.470;2023-02-01T11:05:23;9.80;;;4.78;;
22005;SDS011;11167;46.988;15.470;2023-02-01T11:07:25;8.85;;;4.40;;
22005;SDS011;11167;46.988;15.470;2023-02-01T11:09:29;8.10;;;4.62;;
22005;SDS011;11167;46.988;15.470;2023-02-01T11:11:30;7.15;;;4.78;;
22005;SDS011;11167;46.988;15.470;2023-02-01T11:13:32;7.70;;;4.22;;
22005;SDS011;11167;46.988;15.470;2023-02-01T11:15:36;8.98;;;4.60;;
22005;SDS011;11167;46.988;15.470;2023-02-01T11:17:44;7.53;;;4.53;;
22005;SDS011;11167;46.988;15.470;2023-02-01T11:19:55;6.72;;;4.17;;
22005;SDS011;11167;46.988;15.470;2023-02-01T11:22:00;8.40;;;4.45;;
22005;SDS011;11167;46.988;15.470;2023-02-01T11:24:02;8.23;;;4.33;;
22005;SDS011;11167;46.988;15.470;2023-02-01T11:26:12;6.45;;;4.17;;
22005;SDS011;11167;46.988;15.470;2023-02-01T11:28:25;7.78;;;4.50;;
22005;SDS011;11167;46.988;15.470;2023-02-01T11:32:36;7.78;;;4.35;;
22005;SDS011;11167;46.988;15.470;2023-02-01T11:34:45;8.15;;;4.28;;
22005;SDS011;11167;46.988;15.470;2023-02-01T11:36:45;9.45;;;4.90;;
22005;SDS011;11167;46.988;15.470;2023-02-01T11:39:33;6.95;;;4.10;;
22005;SDS011;11167;46.988;15.470;2023-02-01T11:41:20;7.28;;;4.70;;
22005;SDS011;11167;46.988;15.470;2023-02-01T11:45:27;6.92;;;4.33;;
22005;SDS011;11167;46.988;15.470;2023-02-01T11:47:31;7.80;;;4.12;;
22005;SDS011;11167;46.988;15.470;2023-02-01T11:51:44;7.40;;;4.35;;
22005;SDS011;11167;46.988;15.470;2023-02-01T11:56:13;5.47;;;3.87;;
22005;SDS011;11167;46.988;15.470;2023-02-01T12:12:28;4.53;;;3.20;;
22005;SDS011;11167;46.988;15.470;2023-02-01T12:15:05;5.87;;;3.30;;
22005;SDS011;11167;46.988;15.470;2023-02-01T12:21:46;3.92;;;2.80;;
22005;SDS011;11167;46.988;15.470;2023-02-01T12:26:12;5.70;;;2.52;;
22005;SDS011;11167;46.988;15.470;2023-02-01T12:28:23;2.95;;;2.10;;
22005;SDS011;11167;46.988;15.470;2023-02-01T12:35:49;1.87;;;1.30;;
22005;SDS011;11167;46.988;15.470;2023-02-01T12:40:12;1.65;;;1.07;;
22005;SDS011;11167;46.988;15.470;2023-02-01T12:42:16;1.15;;;0.80;;
22005;SDS011;11167;46.988;15.470;2023-02-01T12:44:23;0.70;;;0.53;;
22005;SDS011;11167;46.988;15.470;2023-02-01T12:46:44;0.68;;;0.65;;
22005;SDS011;11167;46.988;15.470;2023-02-01T12:51:12;0.85;;;0.40;;
22005;SDS011;11167;46.988;15.470;2023-02-01T12:53:15;1.65;;;0.45;;
22005;SDS011;11167;46.988;15.470;2023-02-01T12:55:33;1.75;;;0.50;;
22005;SDS011;11167;46.988;15.470;2023-02-01T12:57:37;1.10;;;0.50;;
22005;SDS011;11167;46.988;15.470;2023-02-01T12:59:51;0.40;;;0.40;;
22005;SDS011;11167;46.988;15.470;2023-02-01T13:02:13;1.02;;;0.57;;
22005;SDS011;11167;46.988;15.470;2023-02-01T13:08:39;0.40;;;0.35;;
22005;SDS011;11167;46.988;15.470;2023-02-01T13:10:48;0.57;;;0.30;;
22005;SDS011;11167;46.988;15.470;2023-02-01T13:17:49;1.42;;;0.30;;
22005;SDS011;11167;46.988;15.470;2023-02-01T13:19:56;0.40;;;0.40;;
22005;SDS011;11167;46.988;15.470;2023-02-01T13:22:12;0.40;;;0.35;;
22005;SDS011;11167;46.988;15.470;2023-02-01T13:24:21;1.52;;;0.37;;
22005;SDS011;11167;46.988;15.470;2023-02-01T13:26:22;0.70;;;0.40;;
22005;SDS011;11167;46.988;15.470;2023-02-01T13:30:53;1.52;;;0.65;;
22005;SDS011;11167;46.988;15.470;2023-02-01T13:33:05;1.05;;;0.53;;
22005;SDS011;11167;46.988;15.470;2023-02-01T13:37:39;2.20;;;0.60;;
22005;SDS011;11167;46.988;15.470;2023-02-01T13:44:32;1.05;;;0.30;;
22005;SDS011;11167;46.988;15.470;2023-02-01T13:46:43;2.67;;;0.40;;
22005;SDS011;11167;46.988;15.470;2023-02-01T13:50:51;0.85;;;0.30;;
22005;SDS011;11167;46.988;15.470;2023-02-01T13:52:56;0.30;;;0.30;;
22005;SDS011;11167;46.988;15.470;2023-02-01T13:57:37;1.27;;;0.40;;
22005;SDS011;11167;46.988;15.470;2023-02-01T14:01:48;0.62;;;0.37;;
22005;SDS011;11167;46.988;15.470;2023-02-01T14:04:00;1.20;;;0.57;;
22005;SDS011;11167;46.988;15.470;2023-02-01T14:06:00;0.80;;;0.50;;